Archiv-/Tagesdaten

--Timestamp---	Temp	Chill	HIndex	Humid	Dewpt	Wind	HiWind	WindDir	Rain	Barom	        Solar	ET	UV
--------------	----	-----	------	-----	-----	----	------	-------	----	-----	        -----	--	--
20080709 00:05	14.5	14.5	14.5	70	9.1	10	21	247	0.00	1016.631	0	0.000	0
20080709 00:10	14.6	14.6	14.6	69	9.0	8	18	247	0.00	1016.732	0	0.000	0
20080709 00:15	14.7	14.7	14.7	69	9.0	8	14	247	0.00	1016.766	0	0.000	0
20080709 00:20	14.6	14.6	14.6	69	9.0	5	14	270	0.00	1016.800	0	0.000	0
20080709 00:25	14.6	14.6	14.6	70	9.1	5	10	247	0.00	1016.834	0	0.000	0
20080709 00:30	14.4	14.4	14.4	71	9.2	6	14	247	0.00	1016.834	0	0.000	0
20080709 00:35	14.3	14.3	14.3	70	8.9	6	13	270	0.00	1016.935	0	0.000	0
20080709 00:40	14.3	14.3	14.3	70	8.9	6	13	247	0.00	1017.071	0	0.000	0
20080709 00:45	14.3	14.3	14.3	69	8.7	10	21	270	0.00	1017.139	0	0.000	0
20080709 00:50	14.4	14.4	14.4	69	8.8	8	14	270	0.00	1017.172	0	0.000	0
20080709 00:55	14.4	14.4	14.4	69	8.8	8	18	270	0.00	1017.240	0	0.000	0
20080709 01:00	14.3	14.3	14.3	69	8.7	6	10	270	0.00	1017.308	0	0.040	0
20080709 01:05	14.2	14.2	14.2	69	8.6	6	16	270	0.00	1017.105	0	0.000	0
20080709 01:10	14.1	14.1	14.1	69	8.5	6	14	270	0.00	1017.308	0	0.000	0
20080709 01:15	14.0	14.0	14.0	69	8.4	6	14	270	0.00	1017.342	0	0.000	0
20080709 01:20	13.9	13.9	13.9	69	8.3	6	14	247	0.00	1017.342	0	0.000	0
20080709 01:25	13.8	13.8	13.8	69	8.2	6	16	247	0.00	1017.342	0	0.000	0
20080709 01:30	13.8	13.8	13.8	70	8.4	5	14	270	0.00	1017.409	0	0.000	0
20080709 01:35	13.7	13.7	13.7	70	8.3	5	10	247	0.00	1017.409	0	0.000	0
20080709 01:40	13.5	13.5	13.5	71	8.3	5	10	247	0.00	1017.477	0	0.000	0
20080709 01:45	13.4	13.4	13.4	71	8.2	5	10	247	0.00	1017.477	0	0.000	0
20080709 01:50	13.3	13.3	13.3	72	8.3	3	8	247	0.00	1017.409	0	0.000	0
20080709 01:55	13.2	13.2	13.2	72	8.2	3	6	247	0.00	1017.342	0	0.000	0
20080709 02:00	13.1	13.1	13.1	73	8.4	2	6	225	0.00	1017.443	0	0.020	0
20080709 02:05	13.1	13.1	13.1	75	8.8	3	8	225	0.00	1017.511	0	0.000	0
20080709 02:10	13.1	13.1	13.1	75	8.8	5	11	247	0.00	1017.511	0	0.000	0
20080709 02:15	13.1	13.1	13.1	76	8.9	5	10	225	0.00	1017.545	0	0.000	0
20080709 02:20	13.1	13.1	13.1	76	8.9	5	11	247	0.00	1017.443	0	0.000	0
20080709 02:25	13.1	13.1	13.1	76	9.0	3	10	247	0.00	1017.376	0	0.000	0
20080709 02:30	13.2	13.2	13.2	76	9.0	3	10	247	0.00	1017.409	0	0.000	0
20080709 02:35	13.2	13.2	13.2	75	8.9	5	11	225	0.00	1017.376	0	0.000	0
20080709 02:40	13.3	13.3	13.3	75	8.9	5	11	247	0.00	1017.443	0	0.000	0
20080709 02:45	13.3	13.3	13.3	75	9.0	3	11	247	0.00	1017.409	0	0.000	0
20080709 02:50	13.3	13.3	13.3	75	9.0	3	10	247	0.00	1017.443	0	0.000	0
20080709 02:55	13.3	13.3	13.3	76	9.2	3	14	247	0.00	1017.477	0	0.000	0
20080709 03:00	13.3	13.3	13.3	75	8.9	3	10	225	0.00	1017.409	0	0.020	0
20080709 03:05	13.3	13.3	13.3	75	8.9	3	14	225	0.00	1017.274	0	0.000	0
20080709 03:10	13.3	13.3	13.3	75	8.9	3	10	247	0.00	1017.274	0	0.000	0
20080709 03:15	13.2	13.2	13.2	76	9.1	3	11	225	0.00	1017.139	0	0.000	0
20080709 03:20	13.2	13.2	13.2	76	9.0	5	8	225	0.00	1017.071	0	0.000	0
20080709 03:25	13.1	13.1	13.1	76	9.0	5	11	225	0.00	1017.172	0	0.000	0
20080709 03:30	13.1	13.1	13.1	76	8.9	5	11	247	0.00	1017.139	0	0.000	0
20080709 03:35	13.0	13.0	13.0	76	8.9	5	10	225	0.00	1017.206	0	0.000	0
20080709 03:40	12.9	12.9	12.9	76	8.8	3	10	225	0.00	1017.206	0	0.000	0
20080709 03:45	12.9	12.9	12.9	76	8.8	3	10	225	0.00	1017.105	0	0.000	0
20080709 03:50	12.9	12.9	12.9	76	8.8	2	10	225	0.00	1017.071	0	0.000	0
20080709 03:55	12.8	12.8	12.8	76	8.7	3	11	225	0.00	1017.037	0	0.000	0
20080709 04:00	12.8	12.8	12.8	77	8.8	3	8	225	0.00	1016.935	0	0.020	0
20080709 04:05	12.7	12.7	12.7	77	8.8	3	8	225	0.00	1016.935	0	0.000	0
20080709 04:10	12.6	12.6	12.6	77	8.7	3	8	225	0.00	1016.935	0	0.000	0
20080709 04:15	12.5	12.5	12.5	77	8.6	2	10	225	0.00	1016.969	0	0.000	0
20080709 04:20	12.4	12.4	12.4	77	8.5	2	6	225	0.00	1017.172	0	0.000	0
20080709 04:25	12.3	12.3	12.3	78	8.6	3	6	225	0.00	1017.240	0	0.000	0
20080709 04:30	12.1	12.1	12.1	79	8.5	3	8	225	0.00	1017.240	0	0.000	0
20080709 04:35	11.8	11.8	11.8	80	8.5	2	6	202	0.00	1017.274	0	0.000	0
20080709 04:40	11.7	11.7	11.7	81	8.5	2	5	202	0.00	1017.342	0	0.000	0
20080709 04:45	11.6	11.6	11.6	81	8.4	2	5	202	0.00	1017.342	0	0.000	0
20080709 04:50	11.4	11.4	11.4	82	8.5	3	6	202	0.00	1017.409	0	0.000	0
20080709 04:55	11.3	11.3	11.3	82	8.4	2	6	202	0.00	1017.477	0	0.000	0
20080709 05:00	11.3	11.3	11.3	82	8.3	2	6	202	0.00	1017.511	0	0.020	0
20080709 05:05	11.2	11.2	11.2	82	8.3	2	6	202	0.00	1017.342	0	0.000	0
20080709 05:10	11.2	11.2	11.2	82	8.3	3	6	202	0.00	1017.342	0	0.000	0
20080709 05:15	11.2	11.2	11.2	82	8.3	3	8	202	0.00	1017.342	0	0.000	0
20080709 05:20	11.3	11.3	11.3	82	8.3	2	6	202	0.00	1017.308	0	0.000	0
20080709 05:25	11.3	11.3	11.3	82	8.3	5	8	202	0.00	1017.308	0	0.000	0
20080709 05:30	11.2	11.2	11.2	82	8.3	5	8	202	0.00	1017.308	2	0.000	0
20080709 05:35	11.1	11.1	11.1	82	8.2	5	8	202	0.00	1017.342	6	0.000	0
20080709 05:40	11.0	11.0	11.0	83	8.2	3	8	202	0.00	1017.342	10	0.000	0
20080709 05:45	11.0	11.0	11.0	83	8.2	2	5	202	0.00	1017.308	13	0.000	0
20080709 05:50	11.1	11.1	11.1	83	8.3	3	6	202	0.00	1017.308	14	0.000	0
20080709 05:55	11.1	11.1	11.1	83	8.3	3	6	202	0.00	1017.342	17	0.000	0
20080709 06:00	11.2	11.2	11.2	82	8.2	3	6	202	0.00	1017.376	19	0.000	0
20080709 06:05	11.3	11.3	11.3	82	8.3	3	5	202	0.00	1017.613	24	0.000	0
20080709 06:10	11.3	11.3	11.3	82	8.4	2	6	202	0.00	1017.748	27	0.000	0
20080709 06:15	11.4	11.4	11.4	82	8.5	2	5	202	0.00	1017.647	34	0.000	0
20080709 06:20	11.6	11.6	11.6	82	8.6	2	6	202	0.00	1017.680	41	0.000	0
20080709 06:25	11.7	11.7	11.7	81	8.5	3	8	202	0.00	1017.680	50	0.000	0
20080709 06:30	11.8	11.8	11.8	81	8.7	3	10	202	0.00	1017.714	43	0.000	0
20080709 06:35	11.9	11.9	11.9	81	8.8	3	6	202	0.00	1017.748	49	0.000	0
20080709 06:40	12.2	12.2	12.2	80	8.8	3	8	202	0.00	1017.680	83	0.000	0
20080709 06:45	12.4	12.4	12.4	80	9.1	3	6	202	0.00	1017.748	88	0.000	0
20080709 06:50	12.7	12.7	12.7	79	9.2	5	11	225	0.00	1017.647	90	0.000	0
20080709 06:55	12.9	12.9	12.9	79	9.4	3	8	225	0.00	1017.613	150	0.000	0
20080709 07:00	13.3	13.3	13.3	78	9.5	2	5	225	0.00	1017.579	153	0.040	0
20080709 07:05	13.5	13.5	13.5	77	9.5	2	5	225	0.00	1017.613	95	0.000	0
20080709 07:10	13.7	13.7	13.7	78	9.9	2	10	225	0.00	1017.579	71	0.000	0
20080709 07:15	13.7	13.7	13.7	78	9.9	2	6	225	0.00	1017.680	67	0.000	0
20080709 07:20	13.8	13.8	13.8	77	9.8	0	5	225	0.00	1017.647	75	0.000	0
20080709 07:25	13.9	13.9	13.9	75	9.5	2	6	225	0.00	1017.647	106	0.000	0
20080709 07:30	14.1	14.1	14.1	74	9.5	2	6	225	0.00	1017.613	99	0.000	0
20080709 07:35	14.2	14.2	14.2	74	9.6	0	3	225	0.00	1017.511	84	0.000	0
20080709 07:40	14.2	14.2	14.2	74	9.7	2	6	225	0.00	1017.647	86	0.000	0
20080709 07:45	14.3	14.3	14.3	74	9.7	3	8	225	0.00	1017.613	101	0.000	0
20080709 07:50	14.3	14.3	14.3	75	10.0	0	5	225	0.00	1017.680	103	0.000	0
20080709 07:55	14.4	14.4	14.4	74	9.9	2	6	247	0.00	1017.647	110	0.000	0
20080709 08:00	14.6	14.6	14.6	74	10.0	3	14	270	0.00	1017.714	122	0.040	1
20080709 08:05	14.6	14.6	14.6	70	9.2	8	13	270	0.00	1017.816	119	0.000	1
20080709 08:10	14.7	14.7	14.7	70	9.3	6	14	292	0.00	1017.782	116	0.000	1
20080709 08:15	14.7	14.7	14.7	69	9.0	5	13	270	0.00	1017.850	132	0.000	1
20080709 08:20	14.7	14.7	14.7	69	9.0	6	11	270	0.00	1017.917	112	0.000	1
20080709 08:25	14.7	14.7	14.7	69	9.0	6	14	270	0.00	1017.951	117	0.000	1
20080709 08:30	14.6	14.6	14.6	70	9.2	3	8	292	0.00	1017.850	82	0.000	1
20080709 08:35	14.7	14.7	14.7	71	9.5	5	11	292	0.00	1017.884	292	0.000	2
20080709 08:40	15.0	15.0	15.0	68	9.1	8	19	270	0.00	1017.951	378	0.000	2
20080709 08:45	15.0	15.0	15.0	68	9.1	8	16	292	0.00	1017.884	117	0.000	2
20080709 08:50	15.1	15.1	15.1	68	9.2	3	16	292	0.00	1017.782	425	0.000	2
20080709 08:55	15.2	15.2	15.2	69	9.6	6	14	292	0.00	1017.884	276	0.000	1
20080709 09:00	15.3	15.3	15.3	68	9.5	5	16	292	0.00	1017.884	163	0.100	1
20080709 09:05	15.2	15.2	15.2	69	9.6	5	13	270	0.00	1018.290	110	0.000	1
20080709 09:10	15.0	15.0	15.0	73	10.2	6	18	292	0.00	1018.493	85	0.000	1
20080709 09:15	14.8	14.8	14.8	76	10.6	3	16	270	0.20	1018.290	129	0.000	1
20080709 09:20	14.4	14.4	14.4	79	10.8	3	8	292	0.00	1018.425	147	0.000	1
20080709 09:25	14.2	14.2	14.2	80	10.8	6	14	270	0.00	1018.358	104	0.000	1
20080709 09:30	13.9	13.9	13.9	80	10.5	2	6	247	0.00	1018.290	85	0.000	1
20080709 09:35	13.8	13.8	13.8	81	10.6	3	10	270	0.00	1018.256	100	0.000	1
20080709 09:40	13.8	13.8	13.8	82	10.8	2	5	270	0.00	1018.256	146	0.000	1
20080709 09:45	13.8	13.8	13.8	82	10.8	3	6	270	0.00	1018.290	114	0.000	1
20080709 09:50	13.7	13.7	13.7	80	10.3	5	10	247	0.00	1018.222	107	0.000	1
20080709 09:55	13.7	13.7	13.7	81	10.5	2	5	270	0.00	1018.256	127	0.000	1
20080709 10:00	13.8	13.8	13.8	81	10.6	2	6	270	0.00	1018.324	133	0.060	1
20080709 10:05	13.8	13.8	13.8	82	10.8	5	11	292	0.00	1018.561	109	0.000	1
20080709 10:10	13.7	13.7	13.7	81	10.5	5	11	292	0.00	1018.459	81	0.000	1
20080709 10:15	13.7	13.7	13.7	82	10.6	2	5	292	0.00	1018.358	143	0.000	1
20080709 10:20	13.8	13.8	13.8	82	10.8	0	3	292	0.00	1018.358	156	0.000	1
20080709 10:25	13.8	13.8	13.8	81	10.6	2	5	292	0.00	1018.324	123	0.000	1
20080709 10:30	13.8	13.8	13.8	81	10.6	3	6	292	0.00	1018.358	101	0.000	1
20080709 10:35	13.8	13.8	13.8	80	10.4	3	10	292	0.00	1018.392	87	0.000	1
20080709 10:40	13.8	13.8	13.8	81	10.6	3	6	292	0.00	1018.459	53	0.000	0
20080709 10:45	13.7	13.7	13.7	81	10.5	3	6	292	0.00	1018.459	100	0.000	1
20080709 10:50	13.7	13.7	13.7	82	10.7	2	5	292	0.20	1018.527	129	0.000	1
20080709 10:55	13.7	13.7	13.7	84	11.0	2	5	292	0.00	1018.425	137	0.000	1
20080709 11:00	13.7	13.7	13.7	84	11.0	2	5	292	0.00	1018.358	119	0.040	1
20080709 11:05	13.6	13.6	13.6	84	11.0	2	6	270	0.20	1018.256	102	0.000	1
20080709 11:10	13.6	13.6	13.6	85	11.1	0	5	270	0.00	1018.290	95	0.000	1
20080709 11:15	13.6	13.6	13.6	85	11.1	0	5	270	0.00	1018.324	99	0.000	1
20080709 11:20	13.8	13.8	13.8	86	11.5	2	5	270	0.00	1018.290	190	0.000	2
20080709 11:25	13.9	13.9	13.9	86	11.6	2	5	270	0.00	1018.324	258	0.000	3
20080709 11:30	14.2	14.2	14.2	84	11.6	3	10	270	0.00	1018.154	277	0.000	3
20080709 11:35	14.4	14.4	14.4	84	11.8	3	8	247	0.00	1018.121	302	0.000	3
20080709 11:40	14.8	14.8	14.8	84	12.1	3	10	270	0.00	1018.087	330	0.000	4
20080709 11:45	15.0	15.0	15.0	82	11.9	3	8	247	0.00	1018.121	412	0.000	4
20080709 11:50	15.2	15.2	15.2	79	11.6	5	13	247	0.00	1018.053	386	0.000	4
20080709 11:55	15.4	15.4	15.4	79	11.8	5	11	270	0.00	1017.985	283	0.000	3
20080709 12:00	15.4	15.4	15.4	79	11.8	5	11	270	0.00	1018.019	182	0.100	2
20080709 12:05	15.4	15.4	15.4	82	12.3	6	11	270	0.00	1017.951	305	0.000	4
20080709 12:10	15.4	15.4	15.4	82	12.4	5	11	270	0.00	1017.850	296	0.000	3
20080709 12:15	15.3	15.3	15.3	81	12.0	5	11	292	0.00	1017.816	286	0.000	4
20080709 12:20	15.2	15.2	15.2	82	12.2	3	8	270	0.00	1017.985	341	0.000	6
20080709 12:25	15.5	15.5	15.5	79	11.9	5	11	247	0.00	1017.816	680	0.000	7
20080709 12:30	15.7	15.7	15.7	79	12.0	6	14	270	0.00	1017.748	264	0.000	5
20080709 12:35	15.8	15.8	15.8	79	12.1	5	11	270	0.00	1017.680	255	0.000	3
20080709 12:40	15.7	15.7	15.7	80	12.3	3	11	247	0.00	1017.714	281	0.000	3
20080709 12:45	15.7	15.7	15.7	79	12.1	5	11	247	0.00	1017.748	309	0.000	4
20080709 12:50	15.8	15.8	15.8	79	12.2	5	19	247	0.00	1017.680	309	0.000	4
20080709 12:55	15.9	15.9	15.9	77	11.9	6	16	270	0.00	1017.613	340	0.000	4
20080709 13:00	15.8	15.8	15.8	76	11.6	10	19	270	0.00	1017.477	258	0.160	3
20080709 13:05	15.8	15.8	15.8	75	11.4	11	19	270	0.00	1017.579	485	0.000	5
20080709 13:10	16.1	16.1	16.1	75	11.7	11	21	270	0.00	1017.579	700	0.000	7
20080709 13:15	16.6	16.6	16.6	74	11.9	11	23	270	0.00	1017.477	627	0.000	7
20080709 13:20	16.9	16.9	16.9	73	12.0	10	26	292	0.00	1017.308	597	0.000	7
20080709 13:25	17.1	17.1	17.1	70	11.6	10	23	247	0.00	1017.274	427	0.000	8
20080709 13:30	17.4	17.4	17.4	68	11.5	10	23	270	0.00	1017.071	889	0.000	9
20080709 13:35	17.8	17.8	17.8	71	12.4	10	21	270	0.00	1017.003	894	0.000	9
20080709 13:40	18.2	18.2	18.2	67	11.9	10	19	292	0.00	1016.935	990	0.000	8
20080709 13:45	18.7	18.7	18.7	66	12.2	8	18	270	0.00	1017.071	966	0.000	9
20080709 13:50	19.0	19.0	19.0	63	11.8	10	19	270	0.00	1016.901	419	0.000	8
20080709 13:55	19.4	19.4	19.4	63	12.2	8	18	270	0.00	1016.800	1070	0.000	9
20080709 14:00	19.4	19.4	19.4	61	11.7	10	23	270	0.00	1016.766	492	0.360	7
20080709 14:05	19.1	19.1	19.1	60	11.1	11	23	270	0.00	1016.732	399	0.000	5
20080709 14:10	18.8	18.8	18.8	61	11.1	11	21	270	0.00	1016.664	297	0.000	4
20080709 14:15	18.5	18.5	18.5	59	10.3	14	26	270	0.00	1016.901	276	0.000	3
20080709 14:20	18.4	18.4	18.4	62	11.0	10	21	270	0.00	1016.800	419	0.000	5
20080709 14:25	18.6	18.6	18.6	62	11.1	10	23	270	0.00	1016.732	395	0.000	4
20080709 14:30	18.6	18.6	18.6	62	11.1	11	29	270	0.00	1016.698	445	0.000	5
20080709 14:35	18.6	18.6	18.6	61	10.9	10	21	270	0.00	1016.360	406	0.000	4
20080709 14:40	18.7	18.7	18.7	62	11.3	8	18	270	0.00	1016.326	281	0.000	3
20080709 14:45	18.7	18.7	18.7	60	10.7	8	21	247	0.00	1016.258	287	0.000	3
20080709 14:50	18.6	18.6	18.6	60	10.6	11	21	270	0.00	1016.394	281	0.000	3
20080709 14:55	18.6	18.6	18.6	60	10.7	8	19	270	0.00	1016.326	369	0.000	4
20080709 15:00	18.8	18.8	18.8	60	10.8	8	19	247	0.00	1016.224	487	0.200	5
20080709 15:05	19.2	19.2	19.2	59	11.0	8	14	270	0.00	1016.190	460	0.000	5
20080709 15:10	19.4	19.4	19.4	55	10.1	8	21	270	0.00	1016.123	369	0.000	4
20080709 15:15	19.3	19.3	19.3	58	10.9	10	23	292	0.00	1016.055	299	0.000	3
20080709 15:20	19.2	19.2	19.2	59	11.0	8	31	270	0.00	1015.987	221	0.000	2
20080709 15:25	19.1	19.1	19.1	57	10.3	8	31	270	0.00	1016.156	183	0.000	2
20080709 15:30	18.9	18.9	18.9	57	10.2	10	19	270	0.00	1016.156	161	0.000	2
20080709 15:35	18.8	18.8	18.8	58	10.4	10	18	270	0.00	1016.224	179	0.000	2
20080709 15:40	18.8	18.8	18.8	58	10.3	8	16	270	0.00	1016.190	194	0.000	2
20080709 15:45	18.8	18.8	18.8	57	10.1	11	21	270	0.00	1016.224	190	0.000	2
20080709 15:50	18.7	18.7	18.7	58	10.3	13	19	270	0.00	1016.224	196	0.000	2
20080709 15:55	18.7	18.7	18.7	60	10.8	10	24	270	0.00	1016.258	189	0.000	2
20080709 16:00	18.7	18.7	18.7	60	10.7	8	16	292	0.00	1016.326	169	0.140	2
20080709 16:05	18.6	18.6	18.6	59	10.4	8	16	270	0.00	1016.394	151	0.000	2
20080709 16:10	18.4	18.4	18.4	60	10.5	10	21	292	0.00	1016.529	108	0.000	1
20080709 16:15	18.3	18.3	18.3	61	10.6	6	16	270	0.00	1016.495	81	0.000	1
20080709 16:20	18.2	18.2	18.2	63	11.0	6	18	270	0.00	1016.394	87	0.000	1
20080709 16:25	18.1	18.1	18.1	63	10.9	8	16	292	0.00	1016.360	123	0.000	1
20080709 16:30	18.0	18.0	18.0	63	10.8	6	16	292	0.00	1016.360	128	0.000	1
20080709 16:35	18.1	18.1	18.1	63	10.9	8	18	292	0.00	1016.326	161	0.000	1
20080709 16:40	18.1	18.1	18.1	64	11.1	8	16	292	0.00	1016.190	266	0.000	2
20080709 16:45	18.2	18.2	18.2	63	11.0	10	18	292	0.00	1016.156	254	0.000	2
20080709 16:50	18.3	18.3	18.3	64	11.3	8	14	292	0.00	1016.156	222	0.000	2
20080709 16:55	18.4	18.4	18.4	63	11.2	8	16	270	0.00	1016.190	171	0.000	1
20080709 17:00	18.4	18.4	18.4	63	11.2	8	16	292	0.00	1016.224	154	0.100	1
20080709 17:05	18.2	18.2	18.2	63	11.1	5	16	292	0.00	1016.156	143	0.000	1
20080709 17:10	18.1	18.1	18.1	64	11.2	6	14	292	0.00	1016.089	185	0.000	1
20080709 17:15	18.1	18.1	18.1	66	11.6	6	16	292	0.00	1016.089	259	0.000	2
20080709 17:20	18.2	18.2	18.2	64	11.2	6	16	292	0.00	1016.055	240	0.000	2
20080709 17:25	18.2	18.2	18.2	63	11.0	8	18	292	0.00	1016.021	194	0.000	2
20080709 17:30	18.1	18.1	18.1	64	11.1	6	19	292	0.00	1015.987	184	0.000	1
20080709 17:35	18.1	18.1	18.1	63	11.0	8	19	292	0.00	1015.987	166	0.000	1
20080709 17:40	18.1	18.1	18.1	63	11.0	8	16	292	0.00	1015.919	162	0.000	1
20080709 17:45	18.1	18.1	18.1	64	11.2	6	14	292	0.00	1015.919	164	0.000	1
20080709 17:50	18.1	18.1	18.1	64	11.2	6	14	292	0.00	1015.987	125	0.000	1
20080709 17:55	18.1	18.1	18.1	64	11.1	6	14	292	0.00	1015.987	96	0.000	1
20080709 18:00	18.0	18.0	18.0	64	11.1	6	16	292	0.00	1016.021	82	0.100	0
20080709 18:05	17.9	17.9	17.9	64	11.0	5	11	292	0.00	1015.716	91	0.000	1
20080709 18:10	17.9	17.9	17.9	64	11.0	5	11	292	0.00	1015.750	77	0.000	0
20080709 18:15	17.9	17.9	17.9	64	11.0	5	11	292	0.00	1015.750	79	0.000	0
20080709 18:20	17.8	17.8	17.8	65	11.2	3	6	292	0.00	1015.750	80	0.000	0
20080709 18:25	17.8	17.8	17.8	66	11.4	3	8	292	0.00	1015.716	77	0.000	0
20080709 18:30	17.8	17.8	17.8	66	11.4	5	8	292	0.00	1015.649	86	0.000	0
20080709 18:35	17.8	17.8	17.8	66	11.3	2	6	292	0.00	1015.547	98	0.000	0
20080709 18:40	17.8	17.8	17.8	67	11.6	5	6	292	0.00	1015.547	133	0.000	1
20080709 18:45	17.9	17.9	17.9	67	11.7	3	6	315	0.00	1015.547	171	0.000	1
20080709 18:50	18.2	18.2	18.2	66	11.7	2	5	292	0.00	1015.615	369	0.000	1
20080709 18:55	18.7	18.7	18.7	63	11.5	3	10	292	0.00	1015.615	300	0.000	1
20080709 19:00	18.9	18.9	18.9	63	11.7	2	6	292	0.00	1015.479	169	0.080	1
20080709 19:05	18.9	18.9	18.9	63	11.7	5	10	292	0.00	1015.344	78	0.000	1
20080709 19:10	18.6	18.6	18.6	63	11.4	3	8	292	0.00	1015.411	81	0.000	0
20080709 19:15	18.4	18.4	18.4	64	11.5	3	6	292	0.00	1015.581	76	0.000	0
20080709 19:20	18.3	18.3	18.3	65	11.6	2	3	292	0.00	1015.615	97	0.000	0
20080709 19:25	18.3	18.3	18.3	66	11.8	2	5	292	0.00	1015.649	157	0.000	0
20080709 19:30	18.4	18.4	18.4	65	11.7	5	8	270	0.00	1015.649	144	0.000	0
20080709 19:35	18.5	18.5	18.5	64	11.6	3	8	270	0.00	1015.649	86	0.000	0
20080709 19:40	18.4	18.4	18.4	64	11.5	3	8	270	0.00	1015.649	75	0.000	0
20080709 19:45	18.4	18.4	18.4	65	11.7	3	8	270	0.00	1015.682	81	0.000	0
20080709 19:50	18.4	18.4	18.4	63	11.3	5	10	270	0.00	1015.716	66	0.000	0
20080709 19:55	18.3	18.3	18.3	63	11.2	5	8	270	0.00	1015.682	59	0.000	0
20080709 20:00	18.3	18.3	18.3	65	11.6	3	6	292	0.00	1015.649	60	0.060	0
20080709 20:05	18.2	18.2	18.2	66	11.7	3	6	292	0.00	1015.479	55	0.000	0
20080709 20:10	18.1	18.1	18.1	66	11.6	3	6	292	0.00	1015.513	53	0.000	0
20080709 20:15	18.0	18.0	18.0	65	11.3	3	6	292	0.00	1015.547	47	0.000	0
20080709 20:20	17.9	17.9	17.9	66	11.5	2	5	292	0.00	1015.547	37	0.000	0
20080709 20:25	17.8	17.8	17.8	66	11.4	3	5	270	0.00	1015.581	29	0.000	0
20080709 20:30	17.8	17.8	17.8	67	11.6	3	5	292	0.00	1015.411	30	0.000	0
20080709 20:35	17.7	17.7	17.7	67	11.5	3	6	292	0.00	1015.479	30	0.000	0
20080709 20:40	17.6	17.6	17.6	69	11.9	0	5	292	0.00	1015.547	29	0.000	0
20080709 20:45	17.5	17.5	17.5	69	11.7	0	3	292	0.00	1015.479	31	0.000	0
20080709 20:50	17.4	17.4	17.4	70	11.9	0	2	292	0.00	1015.547	24	0.000	0
20080709 20:55	17.3	17.3	17.3	71	12.0	0	2	292	0.00	1015.649	16	0.000	0
20080709 21:00	17.3	17.3	17.3	71	12.0	0	2	292	0.00	1015.716	12	0.020	0
20080709 21:05	17.2	17.2	17.2	71	11.9	0	2	292	0.00	1015.852	9	0.000	0
20080709 21:10	17.2	17.2	17.2	70	11.6	0	0	292	0.00	1015.886	4	0.000	0
20080709 21:15	17.1	17.1	17.1	71	11.8	0	3	292	0.00	1015.919	0	0.000	0
20080709 21:20	17.1	17.1	17.1	71	11.8	3	6	247	0.00	1015.953	0	0.000	0
20080709 21:25	17.0	17.0	17.0	71	11.7	0	3	247	0.00	1015.987	0	0.000	0
20080709 21:30	17.0	17.0	17.0	71	11.7	0	5	247	0.00	1016.089	0	0.000	0
20080709 21:35	16.9	16.9	16.9	71	11.6	2	5	247	0.00	1016.156	0	0.000	0
20080709 21:40	17.0	17.0	17.0	70	11.5	2	5	247	0.00	1016.190	0	0.000	0
20080709 21:45	17.0	17.0	17.0	70	11.5	2	5	247	0.00	1016.156	0	0.000	0
20080709 21:50	17.0	17.0	17.0	70	11.5	0	5	247	0.00	1016.156	0	0.000	0
20080709 21:55	16.9	16.9	16.9	70	11.4	0	5	247	0.00	1016.190	0	0.000	0
20080709 22:00	16.9	16.9	16.9	70	11.4	0	5	247	0.00	1016.326	0	0.000	0
20080709 22:05	16.8	16.8	16.8	71	11.5	0	3	247	0.00	1016.394	0	0.000	0
20080709 22:10	16.8	16.8	16.8	72	11.7	0	2	247	0.00	1016.427	0	0.000	0
20080709 22:15	16.7	16.7	16.7	73	11.9	0	2	247	0.00	1016.461	0	0.000	0
20080709 22:20	16.7	16.7	16.7	73	11.8	0	5	247	0.00	1016.529	0	0.000	0
20080709 22:25	16.6	16.6	16.6	74	11.9	0	0	247	0.00	1016.597	0	0.000	0
20080709 22:30	16.5	16.5	16.5	76	12.3	0	0	247	0.00	1016.597	0	0.000	0
20080709 22:35	16.4	16.4	16.4	75	12.0	0	0	247	0.00	1016.631	0	0.000	0
20080709 22:40	16.4	16.4	16.4	75	11.9	0	2	247	0.00	1016.664	0	0.000	0
20080709 22:45	16.4	16.4	16.4	75	11.9	0	0	247	0.00	1016.698	0	0.000	0
20080709 22:50	16.3	16.3	16.3	75	11.9	0	0	247	0.00	1016.766	0	0.000	0
20080709 22:55	16.4	16.4	16.4	75	11.9	0	2	247	0.00	1016.800	0	0.000	0
20080709 23:00	16.4	16.4	16.4	75	11.9	0	3	247	0.00	1016.868	0	0.020	0
20080709 23:05	16.4	16.4	16.4	75	11.9	0	6	247	0.00	1016.664	0	0.000	0
20080709 23:10	16.4	16.4	16.4	75	11.9	0	3	247	0.00	1016.631	0	0.000	0
20080709 23:15	16.3	16.3	16.3	75	11.9	0	2	247	0.00	1016.732	0	0.000	0
20080709 23:20	16.3	16.3	16.3	75	11.9	0	0	247	0.00	1016.766	0	0.000	0
20080709 23:25	16.3	16.3	16.3	75	11.8	0	2	247	0.00	1016.766	0	0.000	0
20080709 23:30	16.3	16.3	16.3	75	11.8	0	0	247	0.00	1016.698	0	0.000	0
20080709 23:35	16.2	16.2	16.2	75	11.8	0	0	247	0.00	1016.732	0	0.000	0
20080709 23:40	16.2	16.2	16.2	76	12.0	0	0	247	0.00	1016.664	0	0.000	0
20080709 23:45	16.2	16.2	16.2	76	12.0	0	0	247	0.00	1016.664	0	0.000	0
20080709 23:50	16.2	16.2	16.2	76	11.9	0	2	247	0.00	1016.698	0	0.000	0
20080709 23:55	16.2	16.2	16.2	76	11.9	0	2	247	0.00	1016.732	0	0.000	0
20080709 24:00	16.1	16.1	16.1	76	11.9	0	0	247	0.00	1016.732	0	0.020	0



Please note the license to use and transfer of this data:
http://creativecommons.org/licenses/by-nc-sa/3.0/deed.en

Bitte beachten sie die Lizenz zur Verwertung und Weitergabe der Daten:
http://creativecommons.org/licenses/by-nc-sa/3.0/deed.de

zurück zur Übersicht der Archivdaten (Monats und Tagesdaten)

Cookies helfen bei der Bereitstellung von Inhalten. Durch die Nutzung dieser Seiten erklärst du dich damit einverstanden, dass Cookies auf deinem Rechner gespeichert werden. Weitere Information